Time;durP1;ratioP1;P1;durP2;ratioP2;P2;SDS_P1;SDS_P2;PMS_P1;PMS_P2;Temp;Humidity;BMP_temperature;BMP_pressure;BME280_temperature;BME280_humidity;BME280_pressure;Samples;Min_cycle;Max_cycle;Signal;HPM_P1;HPM_P2
2021/07/22 00:01:05;;;;;;;5.63;3.30;;;;;;;;;;4527227;28;20048;-58
2021/07/22 00:03:15;;;;;;;6.00;3.70;;;;;;;;;;4527237;28;20037;-58
2021/07/22 00:05:26;;;;;;;4.33;3.10;;;;;;;;;;4516754;28;20581;-58
2021/07/22 00:07:37;;;;;;;4.57;3.13;;;;;;;;;;4527101;28;20047;-59
2021/07/22 00:09:47;;;;;;;4.18;3.15;;;;;;;;;;4501272;28;20088;-58
2021/07/22 00:11:58;;;;;;;4.43;3.20;;;;;;;;;;4531744;28;20122;-59
2021/07/22 00:14:08;;;;;;;5.00;3.50;;;;;;;;;;4522447;28;20025;-58
2021/07/22 00:16:19;;;;;;;5.07;3.47;;;;;;;;;;4517368;28;20045;-58
2021/07/22 00:18:33;;;;;;;4.57;3.40;;;;;;;;;;4497397;28;20034;-58
2021/07/22 00:20:44;;;;;;;5.68;3.60;;;;;;;;;;4528925;28;20095;-58
2021/07/22 00:22:54;;;;;;;5.27;3.20;;;;;;;;;;4515353;28;20061;-58
2021/07/22 00:25:07;;;;;;;5.37;3.50;;;;;;;;;;4512302;28;20077;-58
2021/07/22 00:27:17;;;;;;;5.43;3.53;;;;;;;;;;4515834;28;20046;-58
2021/07/22 00:29:30;;;;;;;4.63;3.07;;;;;;;;;;4531442;28;20033;-59
2021/07/22 00:31:41;;;;;;;5.05;3.58;;;;;;;;;;4512543;28;20111;-57
2021/07/22 00:33:51;;;;;;;5.23;3.53;;;;;;;;;;4515357;28;20084;-57
2021/07/22 00:36:09;;;;;;;5.17;3.50;;;;;;;;;;4530771;28;20061;-57
2021/07/22 00:38:21;;;;;;;4.60;3.20;;;;;;;;;;4529780;28;20574;-57
2021/07/22 00:40:31;;;;;;;6.73;3.47;;;;;;;;;;4529717;28;20041;-57
2021/07/22 00:43:00;;;;;;;5.75;3.63;;;;;;;;;;4530133;28;20394;-57
2021/07/22 00:45:10;;;;;;;5.68;3.63;;;;;;;;;;4505088;28;20060;-57
2021/07/22 00:47:21;;;;;;;4.57;3.27;;;;;;;;;;4499051;28;20029;-57
2021/07/22 00:49:31;;;;;;;5.93;3.87;;;;;;;;;;4515859;28;20033;-57
2021/07/22 00:51:44;;;;;;;5.53;3.55;;;;;;;;;;4529576;28;20134;-57
2021/07/22 00:53:55;;;;;;;4.97;3.50;;;;;;;;;;4529801;28;20037;-57
2021/07/22 00:56:06;;;;;;;5.77;3.93;;;;;;;;;;4529549;28;20033;-57
2021/07/22 00:58:18;;;;;;;5.43;3.40;;;;;;;;;;4531243;28;20037;-57
2021/07/22 01:00:29;;;;;;;5.60;3.88;;;;;;;;;;4530687;28;20099;-57
2021/07/22 01:02:39;;;;;;;5.27;3.60;;;;;;;;;;4496911;28;20108;-56
2021/07/22 01:04:50;;;;;;;4.30;3.03;;;;;;;;;;4521832;28;21311;-57
2021/07/22 01:07:00;;;;;;;5.83;3.60;;;;;;;;;;4511483;28;20292;-57
2021/07/22 01:09:11;;;;;;;5.03;3.50;;;;;;;;;;4529549;28;20118;-57
2021/07/22 01:11:27;;;;;;;4.90;3.58;;;;;;;;;;4528959;28;20726;-57
2021/07/22 01:13:38;;;;;;;5.50;3.88;;;;;;;;;;4530394;28;20025;-57
2021/07/22 01:15:49;;;;;;;4.90;3.33;;;;;;;;;;4529051;28;20607;-57
2021/07/22 01:17:59;;;;;;;4.53;3.20;;;;;;;;;;4513582;28;20510;-57
2021/07/22 01:20:21;;;;;;;5.43;3.88;;;;;;;;;;4497727;28;20034;-57
2021/07/22 01:22:33;;;;;;;5.13;3.60;;;;;;;;;;4511495;28;20034;-57
2021/07/22 01:24:44;;;;;;;5.82;3.65;;;;;;;;;;4499857;28;20038;-57
2021/07/22 01:26:56;;;;;;;6.03;3.50;;;;;;;;;;4517598;28;20038;-58
2021/07/22 01:29:22;;;;;;;5.25;3.50;;;;;;;;;;4514614;28;20332;-57
2021/07/22 01:31:34;;;;;;;5.30;3.30;;;;;;;;;;4511655;28;20037;-57
2021/07/22 01:33:46;;;;;;;5.03;3.42;;;;;;;;;;4520414;28;20034;-57
2021/07/22 01:35:57;;;;;;;5.22;3.70;;;;;;;;;;4518880;28;20034;-56
2021/07/22 01:38:08;;;;;;;6.23;3.70;;;;;;;;;;4530165;28;20505;-56
2021/07/22 01:40:19;;;;;;;5.03;3.28;;;;;;;;;;4503825;28;20022;-56
2021/07/22 01:42:31;;;;;;;;;;;;;;;;;;4529495;28;20065;-57
2021/07/22 01:44:42;;;;;;;4.90;3.58;;;;;;;;;;4511975;28;20602;-57
2021/07/22 01:46:53;;;;;;;5.07;3.30;;;;;;;;;;4513817;28;20499;-57
2021/07/22 01:49:04;;;;;;;4.20;2.80;;;;;;;;;;4514987;28;20372;-57
2021/07/22 01:51:16;;;;;;;4.93;3.42;;;;;;;;;;4504099;28;20616;-56
2021/07/22 01:53:37;;;;;;;5.15;3.30;;;;;;;;;;4515605;28;20041;-57
2021/07/22 01:55:48;;;;;;;5.32;3.67;;;;;;;;;;4509249;28;20034;-57
2021/07/22 01:58:00;;;;;;;5.93;3.80;;;;;;;;;;4512414;28;20037;-56
2021/07/22 02:00:16;;;;;;;5.55;3.83;;;;;;;;;;4497910;28;20037;-57
2021/07/22 02:02:29;;;;;;;6.35;4.10;;;;;;;;;;4530232;28;20135;-56
2021/07/22 02:04:42;;;;;;;5.30;3.67;;;;;;;;;;4519617;28;20033;-57
2021/07/22 02:06:54;;;;;;;6.38;4.07;;;;;;;;;;4528604;28;20037;-57
2021/07/22 02:09:04;;;;;;;4.93;3.80;;;;;;;;;;4527804;28;20804;-56
2021/07/22 02:11:15;;;;;;;6.10;4.00;;;;;;;;;;4514185;28;20540;-57
2021/07/22 02:13:26;;;;;;;5.10;3.60;;;;;;;;;;4528633;28;20187;-56
2021/07/22 02:15:39;;;;;;;6.50;4.10;;;;;;;;;;4514056;28;20069;-56
2021/07/22 02:17:49;;;;;;;6.47;4.07;;;;;;;;;;4521658;28;20112;-57
2021/07/22 02:20:03;;;;;;;6.53;4.20;;;;;;;;;;4514122;28;20022;-56
2021/07/22 02:22:16;;;;;;;5.75;3.65;;;;;;;;;;4520155;28;20045;-57
2021/07/22 02:24:37;;;;;;;;;;;;;;;;;;4510223;28;20619;-57
2021/07/22 02:26:56;;;;;;;5.50;3.67;;;;;;;;;;4499657;28;20067;-57
2021/07/22 02:29:08;;;;;;;5.07;3.58;;;;;;;;;;4528814;28;20137;-56
2021/07/22 02:31:18;;;;;;;6.30;3.93;;;;;;;;;;4511286;28;20040;-56
2021/07/22 02:33:29;;;;;;;5.80;3.97;;;;;;;;;;4497723;28;20597;-56
2021/07/22 02:35:40;;;;;;;6.10;4.07;;;;;;;;;;4520444;28;20528;-56
2021/07/22 02:38:20;;;;;;;5.82;3.90;;;;;;;;;;4512286;28;21085;-57
2021/07/22 02:40:30;;;;;;;6.13;3.97;;;;;;;;;;4514492;28;20093;-57
2021/07/22 02:42:41;;;;;;;5.50;3.93;;;;;;;;;;4504891;28;20676;-57
2021/07/22 02:44:57;;;;;;;5.03;3.65;;;;;;;;;;4514203;28;20162;-57
2021/07/22 02:47:13;;;;;;;5.50;3.90;;;;;;;;;;4526731;28;21311;-57
2021/07/22 02:49:30;;;;;;;5.88;4.00;;;;;;;;;;4519488;28;20037;-57
2021/07/22 02:51:42;;;;;;;5.43;3.55;;;;;;;;;;4514021;28;20308;-57
2021/07/22 02:53:54;;;;;;;6.25;3.72;;;;;;;;;;4528380;28;20069;-57
2021/07/22 02:56:07;;;;;;;7.15;4.50;;;;;;;;;;4528957;28;20180;-57
2021/07/22 02:58:19;;;;;;;5.63;3.40;;;;;;;;;;4497483;28;20081;-57
2021/07/22 03:00:30;;;;;;;6.35;4.18;;;;;;;;;;4509979;28;20101;-57
2021/07/22 03:02:41;;;;;;;6.25;4.13;;;;;;;;;;4515615;28;20034;-57
2021/07/22 03:04:53;;;;;;;;;;;;;;;;;;4520605;28;20144;-57
2021/07/22 03:07:07;;;;;;;6.13;4.07;;;;;;;;;;4529169;28;19988;-57
2021/07/22 03:09:18;;;;;;;7.13;4.45;;;;;;;;;;4527002;28;20628;-57
2021/07/22 03:11:31;;;;;;;6.75;4.43;;;;;;;;;;4528821;28;20603;-56
2021/07/22 03:13:44;;;;;;;5.07;3.95;;;;;;;;;;4508329;28;20798;-56
2021/07/22 03:15:56;;;;;;;6.50;4.03;;;;;;;;;;4497933;28;20045;-57
2021/07/22 03:18:27;;;;;;;5.45;3.75;;;;;;;;;;4503914;28;20593;-57
2021/07/22 03:20:39;;;;;;;6.40;4.07;;;;;;;;;;4526207;28;20044;-57
2021/07/22 03:22:50;;;;;;;7.15;4.28;;;;;;;;;;4496080;28;20054;-58
2021/07/22 03:25:07;;;;;;;6.22;4.03;;;;;;;;;;4502964;28;20037;-57
2021/07/22 03:27:32;;;;;;;6.28;3.90;;;;;;;;;;4512324;28;20705;-57
2021/07/22 03:29:44;;;;;;;6.28;4.10;;;;;;;;;;4497491;28;20045;-57
2021/07/22 03:31:55;;;;;;;6.20;4.00;;;;;;;;;;4516369;28;20030;-57
2021/07/22 03:34:13;;;;;;;6.78;4.20;;;;;;;;;;4512313;28;20034;-57
2021/07/22 03:36:32;;;;;;;7.07;4.07;;;;;;;;;;4529263;28;20033;-57
2021/07/22 03:38:51;;;;;;;6.13;4.10;;;;;;;;;;4512673;28;20071;-57
2021/07/22 03:41:31;;;;;;;5.93;4.00;;;;;;;;;;4506702;28;20055;-57
2021/07/22 03:43:51;;;;;;;6.00;4.07;;;;;;;;;;4518327;28;20120;-57
2021/07/22 03:46:01;;;;;;;6.97;4.40;;;;;;;;;;4530880;28;20206;-57
2021/07/22 03:48:14;;;;;;;5.82;4.20;;;;;;;;;;4511661;28;20145;-57
2021/07/22 03:50:26;;;;;;;6.47;4.40;;;;;;;;;;4515334;28;20041;-57
2021/07/22 03:52:37;;;;;;;6.78;4.50;;;;;;;;;;4528776;28;20506;-57
2021/07/22 03:54:47;;;;;;;5.17;3.87;;;;;;;;;;4531259;28;20045;-57
2021/07/22 03:57:00;;;;;;;6.03;4.13;;;;;;;;;;4520642;28;20250;-58
2021/07/22 03:59:10;;;;;;;6.13;4.20;;;;;;;;;;4521821;28;20630;-56
2021/07/22 04:01:23;;;;;;;5.30;3.63;;;;;;;;;;4532978;28;20041;-57
2021/07/22 04:03:36;;;;;;;6.60;4.10;;;;;;;;;;4512947;28;20034;-57
2021/07/22 04:05:46;;;;;;;6.68;3.88;;;;;;;;;;4530618;28;20021;-57
2021/07/22 04:07:57;;;;;;;7.17;4.57;;;;;;;;;;4515243;28;20046;-56
2021/07/22 04:10:19;;;;;;;7.78;4.88;;;;;;;;;;4504291;28;20041;-57
2021/07/22 04:12:44;;;;;;;6.43;4.40;;;;;;;;;;4517508;28;20038;-57
2021/07/22 04:15:23;;;;;;;6.32;4.18;;;;;;;;;;4530212;28;20029;-57
2021/07/22 04:17:51;;;;;;;7.13;4.63;;;;;;;;;;4530242;28;20640;-56
2021/07/22 04:20:11;;;;;;;6.75;4.53;;;;;;;;;;4505574;28;20601;-57
2021/07/22 04:22:42;;;;;;;6.43;4.50;;;;;;;;;;4529709;28;20100;-56
2021/07/22 04:25:12;;;;;;;8.48;4.90;;;;;;;;;;4520986;28;20332;-57
2021/07/22 04:27:37;;;;;;;7.03;4.90;;;;;;;;;;4500946;28;20785;-57
2021/07/22 04:29:51;;;;;;;6.88;4.30;;;;;;;;;;4520404;28;20037;-56
2021/07/22 04:32:04;;;;;;;7.18;4.10;;;;;;;;;;4530294;28;20664;-57
2021/07/22 04:34:37;;;;;;;7.10;4.57;;;;;;;;;;4528470;28;20761;-57
2021/07/22 04:37:06;;;;;;;5.95;4.03;;;;;;;;;;4516711;28;20033;-56
2021/07/22 04:39:45;;;;;;;6.30;4.38;;;;;;;;;;4500871;28;20621;-57
2021/07/22 04:42:16;;;;;;;6.93;4.45;;;;;;;;;;4518249;28;20051;-57
2021/07/22 04:44:36;;;;;;;7.78;4.55;;;;;;;;;;4530106;28;20037;-57
2021/07/22 04:47:02;;;;;;;6.65;4.30;;;;;;;;;;4530666;28;20025;-57
2021/07/22 04:49:35;;;;;;;7.25;4.90;;;;;;;;;;4509852;28;20092;-57
2021/07/22 04:52:06;;;;;;;6.32;4.30;;;;;;;;;;4519529;28;20152;-56
2021/07/22 04:54:25;;;;;;;7.30;4.90;;;;;;;;;;4529690;28;20029;-57
2021/07/22 04:56:36;;;;;;;7.00;4.78;;;;;;;;;;4529456;28;20504;-57
2021/07/22 04:58:46;;;;;;;7.47;4.17;;;;;;;;;;4499063;28;20045;-56
2021/07/22 05:01:09;;;;;;;5.70;3.95;;;;;;;;;;4530612;28;20048;-57
2021/07/22 05:03:21;;;;;;;6.97;4.32;;;;;;;;;;4515275;28;20136;-57
2021/07/22 05:05:35;;;;;;;6.53;4.53;;;;;;;;;;4529898;28;20041;-57
2021/07/22 05:08:02;;;;;;;7.30;4.43;;;;;;;;;;4510709;28;20985;-56
2021/07/22 05:10:23;;;;;;;6.97;4.20;;;;;;;;;;4530227;28;20581;-57
2021/07/22 05:13:01;;;;;;;6.25;4.32;;;;;;;;;;4527247;28;20099;-57
2021/07/22 05:15:37;;;;;;;6.82;4.30;;;;;;;;;;4528547;28;20553;-56
2021/07/22 05:18:07;;;;;;;6.88;4.45;;;;;;;;;;4529883;28;20224;-57
2021/07/22 05:20:36;;;;;;;6.68;4.38;;;;;;;;;;4529334;28;20585;-57
2021/07/22 05:23:19;;;;;;;6.95;4.57;;;;;;;;;;4512256;28;20048;-56
2021/07/22 05:25:55;;;;;;;6.57;4.70;;;;;;;;;;4492183;28;20052;-57
2021/07/22 05:28:32;;;;;;;6.03;4.07;;;;;;;;;;4527469;28;20052;-57
2021/07/22 05:30:52;;;;;;;6.78;4.32;;;;;;;;;;4515453;28;20033;-57
2021/07/22 05:33:33;;;;;;;7.50;4.85;;;;;;;;;;4445011;28;20613;-57
2021/07/22 05:36:09;;;;;;;6.18;4.28;;;;;;;;;;4510007;28;20044;-57
2021/07/22 05:38:38;;;;;;;8.10;4.82;;;;;;;;;;4514967;28;20037;-57
2021/07/22 05:40:49;;;;;;;6.77;4.70;;;;;;;;;;4511049;28;20053;-57
2021/07/22 05:42:59;;;;;;;7.70;4.80;;;;;;;;;;4504853;28;20474;-57
2021/07/22 05:45:10;;;;;;;7.33;4.90;;;;;;;;;;4528420;28;20039;-57
2021/07/22 05:47:20;;;;;;;7.35;4.80;;;;;;;;;;4512636;28;20136;-57
2021/07/22 05:49:31;;;;;;;6.70;4.40;;;;;;;;;;4528858;28;20135;-57
2021/07/22 05:51:41;;;;;;;7.13;4.72;;;;;;;;;;4530366;28;20041;-57
2021/07/22 05:53:52;;;;;;;6.37;4.37;;;;;;;;;;4512175;28;20158;-57
2021/07/22 05:56:03;;;;;;;7.07;4.70;;;;;;;;;;4530144;28;20045;-57
2021/07/22 05:58:13;;;;;;;8.40;4.53;;;;;;;;;;4530401;28;20029;-57
2021/07/22 06:00:24;;;;;;;7.33;4.63;;;;;;;;;;4528552;28;20025;-57
2021/07/22 06:02:34;;;;;;;7.67;4.40;;;;;;;;;;4528956;28;20061;-56
2021/07/22 06:04:44;;;;;;;7.40;4.60;;;;;;;;;;4511502;28;20076;-57
2021/07/22 06:06:55;;;;;;;7.00;4.80;;;;;;;;;;4516268;28;20383;-57
2021/07/22 06:09:05;;;;;;;7.50;4.77;;;;;;;;;;4511141;28;20525;-56
2021/07/22 06:11:16;;;;;;;7.57;4.57;;;;;;;;;;4528285;28;20071;-57
2021/07/22 06:13:26;;;;;;;6.40;4.57;;;;;;;;;;4528265;28;20037;-57
2021/07/22 06:15:37;;;;;;;7.50;4.40;;;;;;;;;;4528053;28;20041;-56
2021/07/22 06:17:47;;;;;;;6.93;4.40;;;;;;;;;;4509330;28;20041;-57
2021/07/22 06:19:58;;;;;;;7.03;4.87;;;;;;;;;;4530954;28;20041;-57
2021/07/22 06:22:08;;;;;;;7.07;4.37;;;;;;;;;;4513673;28;20044;-56
2021/07/22 06:24:19;;;;;;;8.80;5.03;;;;;;;;;;4529733;28;20044;-57
2021/07/22 06:26:34;;;;;;;7.80;5.07;;;;;;;;;;4510039;28;20136;-57
2021/07/22 06:28:44;;;;;;;6.43;4.38;;;;;;;;;;4528967;28;20049;-57
2021/07/22 06:30:55;;;;;;;6.77;4.70;;;;;;;;;;4529830;28;20037;-56
2021/07/22 06:33:06;;;;;;;6.85;4.57;;;;;;;;;;4527413;28;20123;-56
2021/07/22 06:35:16;;;;;;;7.30;4.50;;;;;;;;;;4530129;28;20040;-56
2021/07/22 06:37:27;;;;;;;7.17;4.60;;;;;;;;;;4528040;28;20490;-56
2021/07/22 06:39:44;;;;;;;7.45;4.65;;;;;;;;;;4528917;28;20033;-56
2021/07/22 06:41:58;;;;;;;6.03;4.30;;;;;;;;;;4526990;28;20225;-56
2021/07/22 06:44:08;;;;;;;6.93;4.68;;;;;;;;;;4511229;28;20038;-57
2021/07/22 06:46:19;;;;;;;7.00;4.80;;;;;;;;;;4528997;28;20029;-58
2021/07/22 06:48:30;;;;;;;6.27;4.37;;;;;;;;;;4511919;28;20069;-58
2021/07/22 06:50:40;;;;;;;6.50;4.40;;;;;;;;;;4529974;28;20394;-58
2021/07/22 06:52:50;;;;;;;6.60;4.70;;;;;;;;;;4529079;28;20030;-58
2021/07/22 06:55:01;;;;;;;7.50;4.67;;;;;;;;;;4512576;28;20553;-58
2021/07/22 06:57:11;;;;;;;7.47;4.67;;;;;;;;;;4514212;28;20148;-58
2021/07/22 06:59:22;;;;;;;7.17;4.80;;;;;;;;;;4529278;28;20076;-57
2021/07/22 07:01:32;;;;;;;8.73;5.17;;;;;;;;;;4503026;28;20121;-57
2021/07/22 07:03:43;;;;;;;7.60;4.83;;;;;;;;;;4529168;28;20966;-58
2021/07/22 07:05:53;;;;;;;7.00;4.80;;;;;;;;;;4527364;28;20045;-57
2021/07/22 07:08:04;;;;;;;7.50;4.70;;;;;;;;;;4528925;28;20045;-57
2021/07/22 07:10:14;;;;;;;8.17;4.90;;;;;;;;;;4511266;28;20038;-57
2021/07/22 07:12:25;;;;;;;8.30;5.10;;;;;;;;;;4511419;28;20642;-58
2021/07/22 07:14:36;;;;;;;9.17;5.10;;;;;;;;;;4497953;28;20073;-58
2021/07/22 07:16:46;;;;;;;7.97;5.00;;;;;;;;;;4528564;28;20038;-58
2021/07/22 07:18:57;;;;;;;7.93;5.27;;;;;;;;;;4527139;28;20168;-58
2021/07/22 07:21:07;;;;;;;6.77;4.53;;;;;;;;;;4530114;28;20042;-58
2021/07/22 07:23:18;;;;;;;7.23;4.97;;;;;;;;;;4529189;28;20032;-58
2021/07/22 07:25:28;;;;;;;6.77;4.57;;;;;;;;;;4520090;28;20046;-58
2021/07/22 07:27:40;;;;;;;8.10;5.10;;;;;;;;;;4526460;28;20066;-57
2021/07/22 07:29:50;;;;;;;7.80;5.10;;;;;;;;;;4529149;28;20899;-57
2021/07/22 07:32:01;;;;;;;7.80;5.30;;;;;;;;;;4514241;28;20142;-57
2021/07/22 07:34:11;;;;;;;9.18;5.57;;;;;;;;;;4496156;28;20030;-58
2021/07/22 07:36:22;;;;;;;7.43;5.33;;;;;;;;;;4529171;28;20040;-57
2021/07/22 07:38:32;;;;;;;7.70;4.97;;;;;;;;;;4528746;28;20038;-58
2021/07/22 07:40:43;;;;;;;9.13;5.50;;;;;;;;;;4498519;28;20467;-57
2021/07/22 07:42:55;;;;;;;8.03;4.80;;;;;;;;;;4527769;28;20073;-58
2021/07/22 07:45:06;;;;;;;7.57;5.10;;;;;;;;;;4529292;28;20061;-57
2021/07/22 07:47:16;;;;;;;8.40;5.05;;;;;;;;;;4512807;28;20101;-59
2021/07/22 07:49:27;;;;;;;8.07;5.40;;;;;;;;;;4529870;28;20053;-57
2021/07/22 07:51:37;;;;;;;8.43;5.00;;;;;;;;;;4529501;28;20041;-57
2021/07/22 07:53:49;;;;;;;7.53;4.80;;;;;;;;;;4528939;28;20029;-58
2021/07/22 07:56:00;;;;;;;8.95;5.57;;;;;;;;;;4511995;28;20099;-57
2021/07/22 07:58:11;;;;;;;8.20;5.20;;;;;;;;;;4514464;28;20124;-59
2021/07/22 08:00:21;;;;;;;6.83;4.60;;;;;;;;;;4529452;28;20085;-57
2021/07/22 08:02:32;;;;;;;7.90;5.30;;;;;;;;;;4529403;28;20292;-58
2021/07/22 08:04:43;;;;;;;8.53;5.27;;;;;;;;;;4498667;28;20153;-58
2021/07/22 08:06:53;;;;;;;7.03;4.67;;;;;;;;;;4529886;28;20041;-58
2021/07/22 08:09:04;;;;;;;7.77;5.13;;;;;;;;;;4528751;28;20576;-58
2021/07/22 08:11:14;;;;;;;8.30;4.67;;;;;;;;;;4530352;28;20067;-58
2021/07/22 08:13:25;;;;;;;8.10;5.10;;;;;;;;;;4510353;28;20588;-57
2021/07/22 08:15:37;;;;;;;7.25;4.93;;;;;;;;;;4528528;28;20054;-57
2021/07/22 08:17:47;;;;;;;8.50;5.20;;;;;;;;;;4510423;28;20655;-58
2021/07/22 08:20:00;;;;;;;7.17;4.73;;;;;;;;;;4527960;28;20048;-58
2021/07/22 08:22:11;;;;;;;6.75;4.45;;;;;;;;;;4528352;28;20085;-62
2021/07/22 08:24:21;;;;;;;;;;;;;;;;;;4528858;28;20654;-60
2021/07/22 08:26:32;;;;;;;6.75;4.68;;;;;;;;;;4510392;28;20052;-59
2021/07/22 08:28:42;;;;;;;5.20;2.57;;;;;;;;;;4531259;28;20773;-76
2021/07/22 08:30:53;;;;;;;6.67;4.57;;;;;;;;;;4532734;28;20644;-62
2021/07/22 08:33:03;;;;;;;7.93;4.63;;;;;;;;;;4529427;28;20037;-60
2021/07/22 08:35:14;;;;;;;7.00;4.20;;;;;;;;;;4532108;28;20454;-61
2021/07/22 08:37:25;;;;;;;7.25;4.50;;;;;;;;;;4514263;28;20038;-61
2021/07/22 08:39:39;;;;;;;6.10;4.17;;;;;;;;;;4530416;28;20490;-61
2021/07/22 08:41:50;;;;;;;6.68;4.38;;;;;;;;;;4522997;28;20987;-61
2021/07/22 08:44:02;;;;;;;6.67;4.20;;;;;;;;;;4515726;28;20046;-61
2021/07/22 08:46:13;;;;;;;6.95;4.35;;;;;;;;;;4517240;28;20037;-61
2021/07/22 08:48:23;;;;;;;6.73;4.27;;;;;;;;;;4531380;28;20041;-61
2021/07/22 08:50:34;;;;;;;7.53;4.47;;;;;;;;;;4532059;28;20112;-61
2021/07/22 08:52:47;;;;;;;6.73;4.07;;;;;;;;;;4532367;28;20056;-61
2021/07/22 08:54:57;;;;;;;6.72;4.38;;;;;;;;;;4513289;28;20737;-61
2021/07/22 08:57:12;;;;;;;6.53;3.97;;;;;;;;;;4529807;28;20051;-61
2021/07/22 08:59:24;;;;;;;7.53;4.18;;;;;;;;;;4522895;28;20080;-61
2021/07/22 09:01:35;;;;;;;5.95;4.07;;;;;;;;;;4522722;28;21151;-61
2021/07/22 09:03:46;;;;;;;6.85;4.25;;;;;;;;;;4516522;28;20136;-61
2021/07/22 09:05:56;;;;;;;6.60;4.30;;;;;;;;;;4523096;28;20128;-61
2021/07/22 09:08:06;;;;;;;6.23;4.20;;;;;;;;;;4530600;28;20410;-60
2021/07/22 09:10:18;;;;;;;5.93;4.00;;;;;;;;;;4516160;28;20197;-61
2021/07/22 09:12:52;;;;;;;5.90;3.88;;;;;;;;;;4531174;28;20076;-61
2021/07/22 09:15:04;;;;;;;6.53;4.00;;;;;;;;;;4523191;28;20406;-61
2021/07/22 09:17:25;;;;;;;6.65;4.03;;;;;;;;;;4531669;28;20973;-60
2021/07/22 09:19:38;;;;;;;6.60;4.00;;;;;;;;;;4516323;28;20203;-61
2021/07/22 09:21:48;;;;;;;6.65;3.78;;;;;;;;;;4512603;28;20041;-61
2021/07/22 09:24:06;;;;;;;5.10;3.67;;;;;;;;;;4530562;28;20042;-62
2021/07/22 09:26:32;;;;;;;5.07;3.50;;;;;;;;;;4529896;28;20025;-61
2021/07/22 09:29:00;;;;;;;5.78;3.72;;;;;;;;;;4517436;28;20121;-61
2021/07/22 09:31:10;;;;;;;6.55;3.83;;;;;;;;;;4530955;28;20044;-61
2021/07/22 09:33:43;;;;;;;5.97;4.07;;;;;;;;;;4529287;28;20045;-61
2021/07/22 09:35:53;;;;;;;5.40;3.60;;;;;;;;;;4515688;28;20036;-61
2021/07/22 09:38:09;;;;;;;6.20;3.47;;;;;;;;;;4516845;28;20045;-61
2021/07/22 09:40:26;;;;;;;5.90;4.00;;;;;;;;;;4529283;28;20044;-61
2021/07/22 09:42:47;;;;;;;6.78;3.90;;;;;;;;;;4529682;28;20033;-61
2021/07/22 09:44:58;;;;;;;;;;;;;;;;;;4517243;28;20552;-61
2021/07/22 09:47:10;;;;;;;5.83;3.90;;;;;;;;;;4531475;28;19962;-61
2021/07/22 09:49:35;;;;;;;6.15;3.70;;;;;;;;;;4531728;28;20766;-61
2021/07/22 09:51:46;;;;;;;6.03;4.10;;;;;;;;;;4528762;28;20033;-60
2021/07/22 09:54:07;;;;;;;6.50;3.92;;;;;;;;;;4514690;28;20406;-61
2021/07/22 09:56:34;;;;;;;6.13;3.77;;;;;;;;;;4531569;28;20115;-61
2021/07/22 09:58:45;;;;;;;6.07;3.70;;;;;;;;;;4519599;28;20245;-60
2021/07/22 10:00:56;;;;;;;6.00;4.10;;;;;;;;;;4514398;28;20042;-61
2021/07/22 10:03:14;;;;;;;5.70;3.63;;;;;;;;;;4530647;28;20090;-61
2021/07/22 10:05:27;;;;;;;5.80;3.97;;;;;;;;;;4528215;28;20125;-61
2021/07/22 10:07:40;;;;;;;5.82;3.58;;;;;;;;;;4529709;28;20029;-61
2021/07/22 10:09:53;;;;;;;5.35;3.65;;;;;;;;;;4515386;28;20111;-61
2021/07/22 10:12:04;;;;;;;5.97;3.88;;;;;;;;;;4527854;28;20866;-63
2021/07/22 10:14:15;;;;;;;5.55;3.85;;;;;;;;;;4529759;28;20026;-61
2021/07/22 10:16:26;;;;;;;6.63;4.00;;;;;;;;;;4510486;28;20045;-61
2021/07/22 10:18:45;;;;;;;6.75;4.30;;;;;;;;;;4528618;28;21018;-61
2021/07/22 10:20:59;;;;;;;7.68;4.60;;;;;;;;;;4527721;28;20038;-61
2021/07/22 10:23:11;;;;;;;7.68;4.25;;;;;;;;;;4528310;28;20033;-61
2021/07/22 10:25:22;;;;;;;6.57;3.72;;;;;;;;;;4513011;28;20107;-61
2021/07/22 10:27:33;;;;;;;7.22;4.43;;;;;;;;;;4509896;28;20100;-60
2021/07/22 10:29:45;;;;;;;6.22;4.10;;;;;;;;;;4512017;28;20057;-60
2021/07/22 10:31:56;;;;;;;6.25;4.00;;;;;;;;;;4517918;28;20033;-61
2021/07/22 10:34:07;;;;;;;7.03;4.40;;;;;;;;;;4521235;28;20029;-61
2021/07/22 10:36:19;;;;;;;7.32;3.92;;;;;;;;;;4510743;28;20064;-61
2021/07/22 10:38:43;;;;;;;;;;;;;;;;;;4521477;28;20668;-61
2021/07/22 10:41:03;;;;;;;6.80;4.30;;;;;;;;;;4515703;28;19917;-61
2021/07/22 10:43:32;;;;;;;7.00;4.32;;;;;;;;;;4509151;28;20145;-61
2021/07/22 10:45:52;;;;;;;6.05;4.15;;;;;;;;;;4518465;28;20040;-61
2021/07/22 10:48:09;;;;;;;6.88;4.47;;;;;;;;;;4510936;28;20051;-60
2021/07/22 10:50:42;;;;;;;6.53;4.10;;;;;;;;;;4528472;28;20376;-61
2021/07/22 10:53:03;;;;;;;6.90;4.20;;;;;;;;;;4520708;28;20046;-61
2021/07/22 10:55:42;;;;;;;6.57;3.97;;;;;;;;;;4528297;28;20890;-61
2021/07/22 10:57:53;;;;;;;6.43;4.20;;;;;;;;;;4527982;28;20040;-61
2021/07/22 11:00:07;;;;;;;6.57;3.97;;;;;;;;;;4527127;28;20045;-61
2021/07/22 11:02:56;;;;;;;6.75;4.40;;;;;;;;;;4527818;28;20037;-61
2021/07/22 11:05:10;;;;;;;6.85;4.10;;;;;;;;;;4452340;28;20768;-61
2021/07/22 11:07:23;;;;;;;7.60;4.25;;;;;;;;;;4464921;28;20080;-60
2021/07/22 11:09:50;;;;;;;6.00;3.92;;;;;;;;;;4463702;28;20058;-60
2021/07/22 11:12:01;;;;;;;6.43;3.97;;;;;;;;;;4452356;28;20027;-61
2021/07/22 11:14:40;;;;;;;6.30;4.10;;;;;;;;;;4448462;28;20039;-61
2021/07/22 11:16:58;;;;;;;6.25;3.90;;;;;;;;;;4449203;28;20438;-61
2021/07/22 11:19:14;;;;;;;6.72;4.18;;;;;;;;;;4447809;28;20531;-62
2021/07/22 11:21:26;;;;;;;6.47;4.10;;;;;;;;;;4461782;28;20039;-60
2021/07/22 11:23:37;;;;;;;5.82;4.05;;;;;;;;;;4462753;28;20043;-62
2021/07/22 11:25:48;;;;;;;6.15;3.70;;;;;;;;;;4450771;28;21150;-61
2021/07/22 11:27:59;;;;;;;5.87;3.87;;;;;;;;;;4462533;28;20162;-61
2021/07/22 11:30:11;;;;;;;6.18;3.85;;;;;;;;;;4467655;28;20043;-61
2021/07/22 11:32:25;;;;;;;5.57;3.70;;;;;;;;;;4464770;28;20594;-60
2021/07/22 11:34:36;;;;;;;6.20;4.00;;;;;;;;;;4443008;28;20032;-61
2021/07/22 11:36:47;;;;;;;5.18;3.45;;;;;;;;;;4512556;28;20050;-61
2021/07/22 11:38:58;;;;;;;6.03;3.60;;;;;;;;;;4527980;28;20041;-61
2021/07/22 11:41:13;;;;;;;5.47;3.83;;;;;;;;;;4502813;28;20044;-62
2021/07/22 11:43:41;;;;;;;5.70;3.65;;;;;;;;;;4518389;28;20037;-61
2021/07/22 11:45:52;;;;;;;6.47;3.65;;;;;;;;;;4513574;28;20041;-62
2021/07/22 11:48:22;;;;;;;5.90;3.53;;;;;;;;;;4527343;28;20493;-61
2021/07/22 11:50:32;;;;;;;5.03;3.15;;;;;;;;;;4513594;28;20037;-61
2021/07/22 11:52:43;;;;;;;4.77;3.30;;;;;;;;;;4529072;28;20597;-61
2021/07/22 11:55:08;;;;;;;5.43;3.53;;;;;;;;;;4527515;28;20033;-61
2021/07/22 11:57:18;;;;;;;5.90;3.70;;;;;;;;;;4510311;28;20152;-61
2021/07/22 11:59:30;;;;;;;5.97;3.53;;;;;;;;;;4515693;28;20029;-61
2021/07/22 12:01:51;;;;;;;5.57;3.53;;;;;;;;;;4530397;28;20694;-62
2021/07/22 12:04:02;;;;;;;5.35;3.50;;;;;;;;;;4509867;28;20033;-60
2021/07/22 12:06:26;;;;;;;5.82;3.70;;;;;;;;;;4512725;28;20037;-61
2021/07/22 12:08:37;;;;;;;7.25;4.00;;;;;;;;;;4505920;28;20046;-61
2021/07/22 12:10:49;;;;;;;5.80;3.60;;;;;;;;;;4513882;28;21073;-61
2021/07/22 12:13:03;;;;;;;5.60;3.70;;;;;;;;;;4531451;28;20029;-60
2021/07/22 12:15:14;;;;;;;5.68;4.00;;;;;;;;;;4530987;28;20038;-61
2021/07/22 12:17:24;;;;;;;5.80;4.10;;;;;;;;;;4531002;28;20033;-61
2021/07/22 12:19:36;;;;;;;6.17;4.03;;;;;;;;;;4531266;28;20517;-61
2021/07/22 12:21:47;;;;;;;5.95;3.85;;;;;;;;;;4522572;28;20098;-61
2021/07/22 12:24:18;;;;;;;6.73;4.23;;;;;;;;;;4516253;28;20122;-61
2021/07/22 12:26:48;;;;;;;5.85;3.80;;;;;;;;;;4530798;28;20044;-61
2021/07/22 12:29:00;;;;;;;5.70;3.75;;;;;;;;;;4516605;28;21347;-61
2021/07/22 12:31:21;;;;;;;5.55;3.55;;;;;;;;;;4515457;28;20518;-61
2021/07/22 12:33:31;;;;;;;6.65;3.80;;;;;;;;;;4531269;28;20806;-61
2021/07/22 12:35:44;;;;;;;5.50;3.67;;;;;;;;;;4531317;28;20083;-61
2021/07/22 12:37:56;;;;;;;7.07;3.80;;;;;;;;;;4517361;28;20600;-60
2021/07/22 12:40:08;;;;;;;5.90;4.00;;;;;;;;;;4532150;28;20651;-61
2021/07/22 12:42:19;;;;;;;6.88;4.60;;;;;;;;;;4531986;28;20037;-61
2021/07/22 12:44:33;;;;;;;6.00;4.07;;;;;;;;;;4530016;28;20034;-61
2021/07/22 12:46:44;;;;;;;8.07;4.88;;;;;;;;;;4530922;28;20025;-61
2021/07/22 12:48:54;;;;;;;6.37;4.13;;;;;;;;;;4497080;28;20049;-61
2021/07/22 12:51:15;;;;;;;6.90;4.50;;;;;;;;;;4515769;28;20041;-61
2021/07/22 12:53:33;;;;;;;5.40;3.88;;;;;;;;;;4515302;28;20030;-60
2021/07/22 12:55:44;;;;;;;6.90;4.32;;;;;;;;;;4531273;28;20132;-61
2021/07/22 12:57:54;;;;;;;7.30;4.47;;;;;;;;;;4513399;28;20029;-61
2021/07/22 13:00:14;;;;;;;6.17;4.20;;;;;;;;;;4528435;28;20038;-61
2021/07/22 13:02:27;;;;;;;6.35;4.30;;;;;;;;;;4530025;28;20128;-61
2021/07/22 13:04:38;;;;;;;6.82;4.55;;;;;;;;;;4530033;28;20068;-61
2021/07/22 13:06:52;;;;;;;7.37;4.60;;;;;;;;;;4530211;28;20109;-61
2021/07/22 13:09:02;;;;;;;7.60;4.88;;;;;;;;;;4529895;28;20048;-61
2021/07/22 13:11:15;;;;;;;6.50;4.37;;;;;;;;;;4531666;28;20072;-60
2021/07/22 13:13:26;;;;;;;6.85;4.70;;;;;;;;;;4530629;28;20036;-61
2021/07/22 13:15:37;;;;;;;6.40;4.68;;;;;;;;;;4500751;28;20034;-60
2021/07/22 13:17:47;;;;;;;8.00;5.07;;;;;;;;;;4528957;28;20375;-61
2021/07/22 13:19:57;;;;;;;7.10;4.77;;;;;;;;;;4531041;28;20402;-61
2021/07/22 13:22:08;;;;;;;6.47;4.43;;;;;;;;;;4515581;28;20137;-60
2021/07/22 13:24:18;;;;;;;7.23;4.93;;;;;;;;;;4530351;28;25996;-61
2021/07/22 13:26:29;;;;;;;6.83;4.70;;;;;;;;;;4529896;28;20176;-61
2021/07/22 13:28:41;;;;;;;8.67;5.00;;;;;;;;;;4528983;28;20033;-60
2021/07/22 13:31:15;;;;;;;7.38;4.85;;;;;;;;;;4530379;28;20657;-60